createdAt,value
2023-01-29T00:02:59.999Z,20.4
2023-01-29T00:05:59.987Z,22.5
2023-01-29T00:09:00.000Z,21.6
2023-01-29T00:12:00.019Z,21.8
2023-01-29T00:15:00.005Z,22.2
2023-01-29T00:18:00.008Z,23.3
2023-01-29T00:21:00.016Z,20.9
2023-01-29T00:24:00.111Z,22.7
2023-01-29T00:27:00.026Z,22.3
2023-01-29T00:30:00.081Z,23.7
2023-01-29T00:33:00.044Z,22.3
2023-01-29T00:36:00.043Z,22.7
2023-01-29T00:39:00.061Z,21.5
2023-01-29T00:42:00.051Z,22.2
2023-01-29T00:45:00.052Z,21.1
2023-01-29T00:48:00.118Z,21.8
2023-01-29T00:51:00.062Z,22.7
2023-01-29T00:54:00.096Z,22.9
2023-01-29T00:57:00.114Z,21
2023-01-29T01:00:00.140Z,22
2023-01-29T01:03:00.089Z,21.9
2023-01-29T01:06:00.111Z,22.5
2023-01-29T01:09:00.115Z,22.3
2023-01-29T01:12:00.119Z,21.8
2023-01-29T01:15:00.131Z,20.9
2023-01-29T01:18:00.164Z,21.7
2023-01-29T01:21:00.129Z,23.5
2023-01-29T01:24:00.232Z,23.2
2023-01-29T01:27:00.137Z,22.2
2023-01-29T01:30:00.162Z,22.2
2023-01-29T01:33:00.154Z,22.6
2023-01-29T01:36:00.152Z,22
2023-01-29T01:39:00.170Z,23.1
2023-01-29T01:42:00.189Z,20.5
2023-01-29T01:45:00.163Z,21.4
2023-01-29T01:48:00.169Z,23
2023-01-29T01:51:00.176Z,24
2023-01-29T01:54:00.194Z,22.1
2023-01-29T01:57:00.187Z,22.2
2023-01-29T02:00:00.223Z,23
2023-01-29T02:03:00.197Z,22.6
2023-01-29T02:06:00.234Z,22.5
2023-01-29T02:09:00.226Z,22.6
2023-01-29T02:12:00.219Z,20.6
2023-01-29T02:15:00.227Z,22.4
2023-01-29T02:18:00.262Z,22.5
2023-01-29T02:21:00.240Z,21.2
2023-01-29T02:24:00.522Z,22.1
2023-01-29T02:27:00.266Z,22.2
2023-01-29T02:30:00.250Z,22.2
2023-01-29T02:33:00.256Z,22.6
2023-01-29T02:36:00.290Z,22.6
2023-01-29T02:39:00.282Z,21
2023-01-29T02:42:00.280Z,21.9
2023-01-29T02:45:00.284Z,22.3
2023-01-29T02:48:00.294Z,21
2023-01-29T02:51:00.302Z,24.7
2023-01-29T02:54:00.349Z,21.1
2023-01-29T02:57:00.310Z,21.2
2023-01-29T03:00:00.316Z,22.5
2023-01-29T03:03:00.325Z,22.1
2023-01-29T03:06:00.331Z,20.5
2023-01-29T03:09:00.347Z,21.4
2023-01-29T03:12:00.372Z,25
2023-01-29T03:15:00.360Z,22.5
2023-01-29T03:18:00.361Z,22
2023-01-29T03:21:00.372Z,21.5
2023-01-29T03:24:00.420Z,24.1
2023-01-29T03:27:00.385Z,24.7
2023-01-29T03:30:00.416Z,26.4
2023-01-29T03:33:00.416Z,26.8
2023-01-29T03:36:00.412Z,27.2
2023-01-29T03:39:00.440Z,26.9
2023-01-29T03:42:00.427Z,29.7
2023-01-29T03:45:00.456Z,30.6
2023-01-29T03:48:00.440Z,29.1
2023-01-29T03:51:00.451Z,30.8
2023-01-29T03:54:00.465Z,30.8
2023-01-29T03:57:00.462Z,31.5
2023-01-29T04:00:00.471Z,31.3
2023-01-29T04:03:00.490Z,33.5
2023-01-29T04:06:00.488Z,32.3
2023-01-29T04:09:00.512Z,31.5
2023-01-29T04:12:00.505Z,34.6
2023-01-29T04:15:00.523Z,33.9
2023-01-29T04:18:00.531Z,35.2
2023-01-29T04:21:00.537Z,33.2
2023-01-29T04:24:00.575Z,34.7
2023-01-29T04:27:00.557Z,35.8
2023-01-29T04:30:00.583Z,34.7
2023-01-29T04:33:00.576Z,32.8
2023-01-29T04:36:00.587Z,33.4
2023-01-29T04:39:00.605Z,31.8
2023-01-29T04:42:00.603Z,32.9
2023-01-29T04:45:00.628Z,31.8
2023-01-29T04:48:00.619Z,32
2023-01-29T04:51:00.636Z,31.7
2023-01-29T04:54:00.655Z,32.8
2023-01-29T04:57:00.662Z,30.5
2023-01-29T05:00:00.674Z,31.5
2023-01-29T05:03:00.704Z,31
2023-01-29T05:06:00.683Z,30.1
2023-01-29T05:09:00.723Z,30.5
2023-01-29T05:12:00.722Z,31.1
2023-01-29T05:15:00.717Z,32.7
2023-01-29T05:18:00.725Z,32.4
2023-01-29T05:21:00.736Z,29.9
2023-01-29T05:24:00.812Z,30.9
2023-01-29T05:27:00.769Z,30.1
2023-01-29T05:30:00.788Z,30.4
2023-01-29T05:33:00.779Z,30.4
2023-01-29T05:36:00.798Z,29
2023-01-29T05:39:00.811Z,28.9
2023-01-29T05:42:00.810Z,29.3
2023-01-29T05:45:00.889Z,29
2023-01-29T05:48:00.829Z,28.2
2023-01-29T05:51:00.849Z,28.8
2023-01-29T05:54:00.868Z,27.5
2023-01-29T05:57:00.871Z,27
2023-01-29T06:00:00.882Z,27.4
2023-01-29T06:03:00.995Z,26.6
2023-01-29T06:06:00.903Z,28.3
2023-01-29T06:09:00.925Z,26.3
2023-01-29T06:12:00.921Z,29.4
2023-01-29T06:15:00.939Z,28.6
2023-01-29T06:18:00.958Z,26.5
2023-01-29T06:21:01.058Z,28.1
2023-01-29T06:24:01.038Z,27.2
2023-01-29T06:27:00.981Z,28
2023-01-29T06:30:00.996Z,26.7
2023-01-29T06:33:01.007Z,28.2
2023-01-29T06:36:01.021Z,27.8
2023-01-29T06:39:01.048Z,27.5
2023-01-29T06:42:01.048Z,28.4
2023-01-29T06:45:01.062Z,26.3
2023-01-29T06:48:01.608Z,26.5
2023-01-29T06:51:01.087Z,27.5
2023-01-29T06:54:01.112Z,26.6
2023-01-29T06:57:01.121Z,26.9
2023-01-29T07:00:01.134Z,27.4
2023-01-29T07:03:01.144Z,25.2
2023-01-29T07:06:01.150Z,25.8
2023-01-29T07:09:01.191Z,27.4
2023-01-29T07:12:01.187Z,28.4
2023-01-29T07:15:01.201Z,27.6
2023-01-29T07:18:01.213Z,28.2
2023-01-29T07:21:01.227Z,26.8
2023-01-29T07:24:01.276Z,27.3
2023-01-29T07:27:01.259Z,25.9
2023-01-29T07:30:01.276Z,29.2
2023-01-29T07:33:01.289Z,26.9
2023-01-29T07:36:01.303Z,27.2
2023-01-29T07:39:01.348Z,26.9
2023-01-29T07:42:01.331Z,27.6
2023-01-29T07:45:01.371Z,27.4
2023-01-29T07:48:01.385Z,28.3
2023-01-29T07:51:01.387Z,29.2
2023-01-29T07:54:01.426Z,27.2
2023-01-29T07:57:01.413Z,27.3
2023-01-29T08:00:01.425Z,26.5
2023-01-29T08:03:01.448Z,27.2
2023-01-29T08:06:01.456Z,27.5
2023-01-29T08:09:01.484Z,26.4
2023-01-29T08:12:01.487Z,25.4
2023-01-29T08:15:01.508Z,26.9
2023-01-29T08:18:01.531Z,26.6
2023-01-29T08:21:01.543Z,26.7
2023-01-29T08:27:01.564Z,27.1
2023-01-29T08:30:01.594Z,28.2
2023-01-29T08:33:01.635Z,27.4
2023-01-29T08:36:01.620Z,28.2
2023-01-29T08:39:01.643Z,27.9
2023-01-29T08:42:01.677Z,27.2
2023-01-29T08:45:01.689Z,30.3
2023-01-29T08:48:01.691Z,27.7
2023-01-29T08:51:01.705Z,27.6
2023-01-29T08:54:01.739Z,29
2023-01-29T08:57:01.743Z,27.9
2023-01-29T09:00:01.783Z,28.9
2023-01-29T09:03:01.777Z,29
2023-01-29T09:06:01.800Z,28
2023-01-29T09:09:01.879Z,28.7
2023-01-29T09:12:01.836Z,30.8
2023-01-29T09:15:01.856Z,29.4
2023-01-29T09:18:01.872Z,28.5
2023-01-29T09:21:01.888Z,29.3
2023-01-29T09:24:01.915Z,28.7
2023-01-29T09:27:01.920Z,30.1
2023-01-29T09:30:01.953Z,31.8
2023-01-29T09:33:01.954Z,31.3
2023-01-29T09:36:01.971Z,32.1
2023-01-29T09:39:02.000Z,33.1
2023-01-29T09:42:02.017Z,32.9
2023-01-29T09:45:02.033Z,35.1
2023-01-29T09:48:02.070Z,35.2
2023-01-29T09:51:02.073Z,34.6
2023-01-29T09:54:02.098Z,33.1
2023-01-29T09:57:02.100Z,35.4
2023-01-29T10:00:02.120Z,33.8
2023-01-29T10:03:02.133Z,33.5
2023-01-29T10:06:02.154Z,34.4
2023-01-29T10:09:02.185Z,33.8
2023-01-29T10:12:02.198Z,32.8
2023-01-29T10:15:02.209Z,33.6
2023-01-29T10:18:02.236Z,33.9
2023-01-29T10:21:02.252Z,33.9
2023-01-29T10:24:02.277Z,33.8
2023-01-29T10:27:02.288Z,33.8
2023-01-29T10:30:02.309Z,34.3
2023-01-29T10:33:02.330Z,33.9
2023-01-29T10:36:02.347Z,33.8
2023-01-29T10:39:02.375Z,34.1
2023-01-29T10:42:02.383Z,34.2
2023-01-29T10:45:02.391Z,36.4
2023-01-29T10:48:02.488Z,34.7
2023-01-29T10:51:02.429Z,35
2023-01-29T10:54:02.453Z,35.2
2023-01-29T10:57:02.466Z,33.9
2023-01-29T11:00:02.485Z,32
2023-01-29T11:03:02.614Z,33.5
2023-01-29T11:06:02.522Z,31.4
2023-01-29T11:09:02.536Z,30.2
2023-01-29T11:12:02.547Z,31.9
2023-01-29T11:15:02.561Z,31.1
2023-01-29T11:18:02.571Z,31.4
2023-01-29T11:21:02.585Z,31.1
2023-01-29T11:24:02.619Z,29.9
2023-01-29T11:27:02.619Z,29.2
2023-01-29T11:30:02.632Z,29.9
2023-01-29T11:33:02.647Z,30.5
2023-01-29T11:36:02.663Z,28.4
2023-01-29T11:39:02.691Z,29.7
2023-01-29T11:42:02.690Z,28.6
2023-01-29T11:45:02.699Z,29.3
2023-01-29T11:48:02.706Z,29.7
2023-01-29T11:51:03.872Z,27.8
2023-01-29T11:54:02.729Z,28
2023-01-29T11:57:02.712Z,28.1
2023-01-29T12:00:02.721Z,28.5
2023-01-29T12:03:02.730Z,29.9
2023-01-29T12:06:02.857Z,28.7
2023-01-29T12:09:02.737Z,28.5
2023-01-29T12:12:02.722Z,26.8
2023-01-29T12:15:02.727Z,27.7
2023-01-29T12:18:02.725Z,26.9
2023-01-29T12:21:02.721Z,28.5
2023-01-29T12:24:02.738Z,27.9
2023-01-29T12:27:02.736Z,26.5
2023-01-29T12:30:02.726Z,27.7
2023-01-29T12:33:02.730Z,27.8
2023-01-29T12:36:02.739Z,26.5
2023-01-29T12:39:02.742Z,29.4
2023-01-29T12:42:02.741Z,26.9
2023-01-29T12:45:02.748Z,29.4
2023-01-29T12:48:02.741Z,27.1
2023-01-29T12:51:02.744Z,27.6
2023-01-29T12:54:02.760Z,27.3
2023-01-29T12:57:02.750Z,25.9
2023-01-29T13:00:02.759Z,27.3
2023-01-29T13:03:02.801Z,26.3
2023-01-29T13:06:02.760Z,27.5
2023-01-29T13:09:02.756Z,27.5
2023-01-29T13:12:02.753Z,27.1
2023-01-29T13:15:02.774Z,27.7
2023-01-29T13:18:02.754Z,25.4
2023-01-29T13:21:02.755Z,26.1
2023-01-29T13:24:02.761Z,26.3
2023-01-29T13:27:02.756Z,25.3
2023-01-29T13:30:02.764Z,27.6
2023-01-29T13:33:02.760Z,27.1
2023-01-29T13:36:02.760Z,26.8
2023-01-29T13:39:02.776Z,26.3
2023-01-29T13:42:02.770Z,27.3
2023-01-29T13:45:02.764Z,26.4
2023-01-29T13:48:02.770Z,26.6
2023-01-29T13:51:02.773Z,27.5
2023-01-29T13:54:02.782Z,25.7
2023-01-29T13:57:02.773Z,25.7
2023-01-29T14:00:02.773Z,26
2023-01-29T14:03:02.775Z,25.4
2023-01-29T14:06:02.774Z,26.3
2023-01-29T14:09:02.795Z,25.3
2023-01-29T14:12:02.796Z,26.7
2023-01-29T14:15:02.793Z,24.1
2023-01-29T14:18:02.784Z,24.6
2023-01-29T14:21:02.786Z,25.1
2023-01-29T14:24:02.804Z,24.3
2023-01-29T14:27:02.789Z,22.9
2023-01-29T14:30:02.789Z,24.1
2023-01-29T14:33:02.792Z,24.8
2023-01-29T14:36:02.789Z,24
2023-01-29T14:39:02.804Z,23.8
2023-01-29T14:42:02.810Z,24.9
2023-01-29T14:45:02.800Z,22.6
2023-01-29T14:48:02.813Z,22.8
2023-01-29T14:51:02.802Z,25.2
2023-01-29T14:54:02.811Z,23.4
2023-01-29T14:57:02.810Z,22.7
2023-01-29T15:00:02.810Z,24.8
2023-01-29T15:03:02.863Z,23.3
2023-01-29T15:06:02.813Z,22.6
2023-01-29T15:09:02.831Z,22.3
2023-01-29T15:12:02.820Z,23.5
2023-01-29T15:15:02.863Z,21.3
2023-01-29T15:18:02.844Z,21.3
2023-01-29T15:21:04.768Z,20.8
2023-01-29T15:24:02.866Z,22.5
2023-01-29T15:27:02.883Z,22.4
2023-01-29T15:30:02.860Z,21.5
2023-01-29T15:33:02.859Z,21.8
2023-01-29T15:36:07.252Z,21.7
2023-01-29T15:39:02.894Z,23.1
2023-01-29T15:42:02.911Z,21.4
2023-01-29T15:45:02.910Z,21.4
2023-01-29T15:48:02.912Z,21.2
2023-01-29T15:51:02.905Z,21.2
2023-01-29T15:54:02.920Z,22.1
2023-01-29T15:57:02.914Z,21.7
2023-01-29T16:00:02.908Z,22.7
2023-01-29T16:03:02.953Z,22.4
2023-01-29T16:06:02.920Z,22.8
2023-01-29T16:09:02.926Z,23.2
2023-01-29T16:12:02.918Z,22.9
2023-01-29T16:15:02.919Z,23.9
2023-01-29T16:18:02.922Z,23.8
2023-01-29T16:21:02.919Z,22.4
2023-01-29T16:24:02.935Z,22.9
2023-01-29T16:27:02.920Z,23.7
2023-01-29T16:30:02.919Z,22.4
2023-01-29T16:33:02.940Z,21.6
2023-01-29T16:36:02.942Z,22.5
2023-01-29T16:39:02.953Z,22.7
2023-01-29T16:42:02.948Z,23.3
2023-01-29T16:45:02.962Z,23.8
2023-01-29T16:48:02.946Z,23.9
2023-01-29T16:51:02.953Z,27.7
2023-01-29T16:54:02.962Z,26.8
2023-01-29T16:57:02.948Z,29.4
2023-01-29T17:00:02.966Z,31.3
2023-01-29T17:03:02.961Z,31.8
2023-01-29T17:06:02.956Z,32.1
2023-01-29T17:09:02.966Z,38.4
2023-01-29T17:12:02.959Z,33.8
2023-01-29T17:15:02.960Z,32.3
2023-01-29T17:18:02.967Z,34
2023-01-29T17:21:02.967Z,32.6
2023-01-29T17:24:02.987Z,34.8
2023-01-29T17:27:02.981Z,32.6
2023-01-29T17:30:02.982Z,31.8
2023-01-29T17:33:02.980Z,30.8
2023-01-29T17:36:02.984Z,30.4
2023-01-29T17:39:02.998Z,29.1
2023-01-29T17:42:02.976Z,29.9
2023-01-29T17:45:03.004Z,29.7
2023-01-29T17:48:02.985Z,28.4
2023-01-29T17:51:03.022Z,30.1
2023-01-29T17:54:02.992Z,25.1
2023-01-29T17:57:02.991Z,25.7
2023-01-29T18:00:02.993Z,25.3
2023-01-29T18:03:02.992Z,24.3
2023-01-29T18:06:02.993Z,23.7
2023-01-29T18:09:02.999Z,23
2023-01-29T18:12:02.995Z,24.1
2023-01-29T18:15:03.003Z,21.9
2023-01-29T18:18:03.013Z,22.6
2023-01-29T18:21:03.006Z,22.6
2023-01-29T18:24:03.017Z,24.1
2023-01-29T18:27:03.021Z,25.2
2023-01-29T18:30:03.026Z,25.5
2023-01-29T18:33:03.033Z,29
2023-01-29T18:36:03.027Z,24.3
2023-01-29T18:39:03.040Z,28.1
2023-01-29T18:42:03.041Z,27.4
2023-01-29T18:45:03.042Z,27.5
2023-01-29T18:48:03.050Z,26.4
2023-01-29T18:51:03.052Z,26.9
2023-01-29T18:54:03.057Z,24.6
2023-01-29T18:57:04.251Z,26.1
2023-01-29T19:00:03.067Z,24.9
2023-01-29T19:03:03.076Z,25
2023-01-29T19:06:03.075Z,24.5
2023-01-29T19:09:03.086Z,25.3
2023-01-29T19:12:03.091Z,23.7
2023-01-29T19:15:03.092Z,21.3
2023-01-29T19:18:03.096Z,21.6
2023-01-29T19:21:03.102Z,22.6
2023-01-29T19:24:03.114Z,21.5
2023-01-29T19:27:03.120Z,22
2023-01-29T19:30:03.126Z,21.4
2023-01-29T19:33:03.162Z,22.5
2023-01-29T19:36:03.148Z,22.6
2023-01-29T19:39:03.147Z,24.4
2023-01-29T19:42:03.151Z,24.3
2023-01-29T19:45:03.159Z,24.9
2023-01-29T19:48:03.164Z,26.2
2023-01-29T19:51:03.173Z,25.6
2023-01-29T19:54:03.173Z,25.1
2023-01-29T19:57:03.192Z,26.9
2023-01-29T20:00:03.196Z,23.5
2023-01-29T20:03:03.210Z,23.6
2023-01-29T20:06:03.205Z,22.7
2023-01-29T20:09:03.217Z,21.9
2023-01-29T20:12:03.220Z,21.2
2023-01-29T20:15:03.226Z,21.1
2023-01-29T20:18:03.237Z,21
2023-01-29T20:21:03.248Z,20.8
2023-01-29T20:24:03.253Z,20.7
2023-01-29T20:27:03.261Z,20.1
2023-01-29T20:30:03.272Z,19
2023-01-29T20:33:03.277Z,19.9
2023-01-29T20:36:03.290Z,19.9
2023-01-29T20:39:03.292Z,20.7
2023-01-29T20:42:03.303Z,20.2
2023-01-29T20:45:03.334Z,21.2
2023-01-29T20:48:03.326Z,21.4
2023-01-29T20:51:03.330Z,21.7
2023-01-29T20:54:03.345Z,20.1
2023-01-29T20:57:03.349Z,19.9
2023-01-29T21:00:03.363Z,20.3
2023-01-29T21:03:03.363Z,19.3
2023-01-29T21:06:03.374Z,19
2023-01-29T21:09:03.380Z,20
2023-01-29T21:12:03.395Z,19.2
2023-01-29T21:15:03.404Z,17.2
2023-01-29T21:18:03.411Z,18.5
2023-01-29T21:21:03.434Z,17.9
2023-01-29T21:24:03.431Z,17.1
2023-01-29T21:27:03.441Z,18.4
2023-01-29T21:30:03.462Z,16.4
2023-01-29T21:33:03.471Z,17.2
2023-01-29T21:36:03.469Z,17.9
2023-01-29T21:39:03.476Z,17
2023-01-29T21:42:03.487Z,15.8
2023-01-29T21:45:03.503Z,17.3
2023-01-29T21:48:03.507Z,17
2023-01-29T21:51:03.521Z,17.3
2023-01-29T21:54:03.530Z,17.8
2023-01-29T21:57:03.544Z,17.7
2023-01-29T22:00:03.553Z,18.9
2023-01-29T22:03:03.615Z,18.1
2023-01-29T22:06:03.583Z,19.4
2023-01-29T22:09:03.587Z,18.3
2023-01-29T22:12:03.615Z,19.5
2023-01-29T22:15:03.614Z,18.4
2023-01-29T22:18:03.622Z,19.3
2023-01-29T22:21:03.627Z,18.4
2023-01-29T22:24:03.647Z,18.8
2023-01-29T22:27:03.647Z,19.5
2023-01-29T22:30:03.665Z,18.6
2023-01-29T22:33:03.677Z,18.7
2023-01-29T22:36:03.703Z,17.9
2023-01-29T22:39:03.694Z,17
2023-01-29T22:42:03.710Z,17.5
2023-01-29T22:45:03.714Z,19.2
2023-01-29T22:48:03.727Z,18.1
2023-01-29T22:51:03.734Z,17.7
2023-01-29T22:54:03.758Z,17.5
2023-01-29T22:57:03.756Z,17.6
2023-01-29T23:00:03.770Z,17.3
2023-01-29T23:03:03.782Z,18.8
2023-01-29T23:06:03.793Z,17.5
2023-01-29T23:09:03.798Z,17.1
2023-01-29T23:12:03.806Z,19.1
2023-01-29T23:15:03.812Z,17.2
2023-01-29T23:18:03.832Z,17.6
2023-01-29T23:21:03.835Z,17.6
2023-01-29T23:24:03.852Z,17.7
2023-01-29T23:27:03.869Z,20.6
2023-01-29T23:30:03.875Z,18.9
2023-01-29T23:33:03.875Z,18.3
2023-01-29T23:36:03.886Z,18.7
2023-01-29T23:39:03.899Z,18.6
2023-01-29T23:42:03.913Z,19.1
2023-01-29T23:45:03.922Z,18
2023-01-29T23:48:03.933Z,17.8
2023-01-29T23:51:03.946Z,18.3
2023-01-29T23:54:03.958Z,18.2
2023-01-29T23:57:03.968Z,18.8
